sensor_id;sensor_type;location;lat;lon;timestamp;temperature;humidity
15184;DHT22;7693;49.266;7.104;2023-12-22T00:01:39;8.50;99.90
15184;DHT22;7693;49.266;7.104;2023-12-22T00:04:05;8.40;99.90
15184;DHT22;7693;49.266;7.104;2023-12-22T00:06:32;8.40;99.90
15184;DHT22;7693;49.266;7.104;2023-12-22T00:08:58;8.40;99.90
15184;DHT22;7693;49.266;7.104;2023-12-22T00:11:23;8.30;99.90
15184;DHT22;7693;49.266;7.104;2023-12-22T00:13:49;8.30;99.90
15184;DHT22;7693;49.266;7.104;2023-12-22T00:16:15;8.20;99.90
15184;DHT22;7693;49.266;7.104;2023-12-22T00:18:40;8.10;99.90
15184;DHT22;7693;49.266;7.104;2023-12-22T00:21:10;8.10;99.90
15184;DHT22;7693;49.266;7.104;2023-12-22T00:23:36;8.10;99.90
15184;DHT22;7693;49.266;7.104;2023-12-22T00:26:03;8.00;99.90
15184;DHT22;7693;49.266;7.104;2023-12-22T00:28:29;8.00;99.90
15184;DHT22;7693;49.266;7.104;2023-12-22T00:30:57;8.00;99.90
15184;DHT22;7693;49.266;7.104;2023-12-22T00:33:23;8.00;99.90
15184;DHT22;7693;49.266;7.104;2023-12-22T00:35:49;7.90;99.90
15184;DHT22;7693;49.266;7.104;2023-12-22T00:38:14;7.90;99.90
15184;DHT22;7693;49.266;7.104;2023-12-22T00:40:40;7.90;99.90
15184;DHT22;7693;49.266;7.104;2023-12-22T00:43:05;7.90;99.90
15184;DHT22;7693;49.266;7.104;2023-12-22T00:45:31;7.90;99.90
15184;DHT22;7693;49.266;7.104;2023-12-22T00:47:57;7.90;99.90
15184;DHT22;7693;49.266;7.104;2023-12-22T00:50:23;7.80;99.90
15184;DHT22;7693;49.266;7.104;2023-12-22T00:52:48;7.80;99.90
15184;DHT22;7693;49.266;7.104;2023-12-22T00:55:14;7.80;99.90
15184;DHT22;7693;49.266;7.104;2023-12-22T00:57:40;7.80;99.90
15184;DHT22;7693;49.266;7.104;2023-12-22T01:00:06;7.80;99.90
15184;DHT22;7693;49.266;7.104;2023-12-22T01:02:35;7.80;99.90
15184;DHT22;7693;49.266;7.104;2023-12-22T01:05:01;7.80;99.90
15184;DHT22;7693;49.266;7.104;2023-12-22T01:07:26;7.90;99.90
15184;DHT22;7693;49.266;7.104;2023-12-22T01:09:52;7.80;99.90
15184;DHT22;7693;49.266;7.104;2023-12-22T01:12:18;7.80;99.90
15184;DHT22;7693;49.266;7.104;2023-12-22T01:14:43;7.80;99.90
15184;DHT22;7693;49.266;7.104;2023-12-22T01:17:11;7.90;99.90
15184;DHT22;7693;49.266;7.104;2023-12-22T01:19:36;7.80;99.90
15184;DHT22;7693;49.266;7.104;2023-12-22T01:22:02;7.80;99.90
15184;DHT22;7693;49.266;7.104;2023-12-22T01:24:27;7.80;99.90
15184;DHT22;7693;49.266;7.104;2023-12-22T01:26:53;7.80;99.90
15184;DHT22;7693;49.266;7.104;2023-12-22T01:29:19;7.90;99.90
15184;DHT22;7693;49.266;7.104;2023-12-22T01:31:44;7.90;99.90
15184;DHT22;7693;49.266;7.104;2023-12-22T01:34:10;7.90;99.90
15184;DHT22;7693;49.266;7.104;2023-12-22T01:36:36;7.90;99.90
15184;DHT22;7693;49.266;7.104;2023-12-22T01:39:02;7.90;99.90
15184;DHT22;7693;49.266;7.104;2023-12-22T01:41:28;7.90;99.90
15184;DHT22;7693;49.266;7.104;2023-12-22T01:43:53;7.90;99.90
15184;DHT22;7693;49.266;7.104;2023-12-22T01:46:19;7.80;99.90
15184;DHT22;7693;49.266;7.104;2023-12-22T01:48:46;7.80;99.90
15184;DHT22;7693;49.266;7.104;2023-12-22T01:51:12;7.90;99.90
15184;DHT22;7693;49.266;7.104;2023-12-22T01:53:38;7.90;99.90
15184;DHT22;7693;49.266;7.104;2023-12-22T01:56:04;7.80;99.90
15184;DHT22;7693;49.266;7.104;2023-12-22T01:58:32;7.80;99.90
15184;DHT22;7693;49.266;7.104;2023-12-22T02:00:58;7.70;99.90
15184;DHT22;7693;49.266;7.104;2023-12-22T02:03:24;7.70;99.90
15184;DHT22;7693;49.266;7.104;2023-12-22T02:05:50;7.70;99.90
15184;DHT22;7693;49.266;7.104;2023-12-22T02:08:18;7.70;99.90
15184;DHT22;7693;49.266;7.104;2023-12-22T02:10:44;7.70;99.90
15184;DHT22;7693;49.266;7.104;2023-12-22T02:13:10;7.70;99.90
15184;DHT22;7693;49.266;7.104;2023-12-22T02:15:36;7.60;99.90
15184;DHT22;7693;49.266;7.104;2023-12-22T02:18:10;7.60;99.90
15184;DHT22;7693;49.266;7.104;2023-12-22T02:20:36;7.60;99.90
15184;DHT22;7693;49.266;7.104;2023-12-22T02:23:03;7.70;99.90
15184;DHT22;7693;49.266;7.104;2023-12-22T02:25:29;7.70;99.90
15184;DHT22;7693;49.266;7.104;2023-12-22T02:28:02;7.70;99.90
15184;DHT22;7693;49.266;7.104;2023-12-22T02:30:39;7.70;99.90
15184;DHT22;7693;49.266;7.104;2023-12-22T02:33:08;7.70;99.90
15184;DHT22;7693;49.266;7.104;2023-12-22T02:35:37;7.70;99.90
15184;DHT22;7693;49.266;7.104;2023-12-22T02:38:04;7.70;99.90
15184;DHT22;7693;49.266;7.104;2023-12-22T02:40:31;7.70;99.90
15184;DHT22;7693;49.266;7.104;2023-12-22T02:42:57;7.70;99.90
15184;DHT22;7693;49.266;7.104;2023-12-22T02:45:23;7.70;99.90
15184;DHT22;7693;49.266;7.104;2023-12-22T02:47:48;7.70;99.90
15184;DHT22;7693;49.266;7.104;2023-12-22T02:50:16;7.70;99.90
15184;DHT22;7693;49.266;7.104;2023-12-22T02:52:41;7.80;99.90
15184;DHT22;7693;49.266;7.104;2023-12-22T02:55:07;7.80;99.90
15184;DHT22;7693;49.266;7.104;2023-12-22T02:57:33;7.80;99.90
15184;DHT22;7693;49.266;7.104;2023-12-22T02:59:59;7.80;99.90
15184;DHT22;7693;49.266;7.104;2023-12-22T03:02:25;7.90;99.90
15184;DHT22;7693;49.266;7.104;2023-12-22T03:04:51;7.90;99.90
15184;DHT22;7693;49.266;7.104;2023-12-22T03:07:16;7.90;99.90
15184;DHT22;7693;49.266;7.104;2023-12-22T03:09:43;7.80;99.90
15184;DHT22;7693;49.266;7.104;2023-12-22T03:12:09;7.70;99.90
15184;DHT22;7693;49.266;7.104;2023-12-22T03:14:35;7.60;99.90
15184;DHT22;7693;49.266;7.104;2023-12-22T03:17:01;7.60;99.90
15184;DHT22;7693;49.266;7.104;2023-12-22T03:19:27;7.60;99.90
15184;DHT22;7693;49.266;7.104;2023-12-22T03:21:53;7.60;99.90
15184;DHT22;7693;49.266;7.104;2023-12-22T03:24:18;7.50;99.90
15184;DHT22;7693;49.266;7.104;2023-12-22T03:26:48;7.50;99.90
15184;DHT22;7693;49.266;7.104;2023-12-22T03:29:13;7.50;99.90
15184;DHT22;7693;49.266;7.104;2023-12-22T03:31:39;7.50;99.90
15184;DHT22;7693;49.266;7.104;2023-12-22T03:34:05;7.40;99.90
15184;DHT22;7693;49.266;7.104;2023-12-22T03:36:31;7.40;99.90
15184;DHT22;7693;49.266;7.104;2023-12-22T03:38:56;7.40;99.90
15184;DHT22;7693;49.266;7.104;2023-12-22T03:41:22;7.40;99.90
15184;DHT22;7693;49.266;7.104;2023-12-22T03:43:47;7.40;99.90
15184;DHT22;7693;49.266;7.104;2023-12-22T03:46:13;7.40;99.90
15184;DHT22;7693;49.266;7.104;2023-12-22T03:48:39;7.40;99.90
15184;DHT22;7693;49.266;7.104;2023-12-22T03:51:04;7.40;99.90
15184;DHT22;7693;49.266;7.104;2023-12-22T03:53:30;7.30;99.90
15184;DHT22;7693;49.266;7.104;2023-12-22T03:55:56;7.30;99.90
15184;DHT22;7693;49.266;7.104;2023-12-22T03:58:21;7.30;99.90
15184;DHT22;7693;49.266;7.104;2023-12-22T04:00:47;7.30;99.90
15184;DHT22;7693;49.266;7.104;2023-12-22T04:03:13;7.30;99.90
15184;DHT22;7693;49.266;7.104;2023-12-22T04:05:39;7.40;99.90
15184;DHT22;7693;49.266;7.104;2023-12-22T04:08:05;7.30;99.90
15184;DHT22;7693;49.266;7.104;2023-12-22T04:10:31;7.30;99.90
15184;DHT22;7693;49.266;7.104;2023-12-22T04:12:57;7.30;99.90
15184;DHT22;7693;49.266;7.104;2023-12-22T04:15:22;7.30;99.90
15184;DHT22;7693;49.266;7.104;2023-12-22T04:17:48;7.30;99.90
15184;DHT22;7693;49.266;7.104;2023-12-22T04:20:15;7.30;99.90
15184;DHT22;7693;49.266;7.104;2023-12-22T04:22:40;7.40;99.90
15184;DHT22;7693;49.266;7.104;2023-12-22T04:25:06;7.40;99.90
15184;DHT22;7693;49.266;7.104;2023-12-22T04:27:33;7.40;99.90
15184;DHT22;7693;49.266;7.104;2023-12-22T04:29:58;7.40;99.90
15184;DHT22;7693;49.266;7.104;2023-12-22T04:32:24;7.40;99.90
15184;DHT22;7693;49.266;7.104;2023-12-22T04:34:50;7.40;99.90
15184;DHT22;7693;49.266;7.104;2023-12-22T04:37:15;7.40;99.90
15184;DHT22;7693;49.266;7.104;2023-12-22T04:39:41;7.40;99.90
15184;DHT22;7693;49.266;7.104;2023-12-22T04:42:06;7.40;99.90
15184;DHT22;7693;49.266;7.104;2023-12-22T04:44:32;7.40;99.90
15184;DHT22;7693;49.266;7.104;2023-12-22T04:46:58;7.50;99.90
15184;DHT22;7693;49.266;7.104;2023-12-22T04:49:23;7.40;99.90
15184;DHT22;7693;49.266;7.104;2023-12-22T04:51:49;7.40;99.90
15184;DHT22;7693;49.266;7.104;2023-12-22T04:54:14;7.50;99.90
15184;DHT22;7693;49.266;7.104;2023-12-22T04:56:40;7.40;99.90
15184;DHT22;7693;49.266;7.104;2023-12-22T04:59:06;7.50;99.90
15184;DHT22;7693;49.266;7.104;2023-12-22T05:01:31;7.50;99.90
15184;DHT22;7693;49.266;7.104;2023-12-22T05:03:57;7.50;99.90
15184;DHT22;7693;49.266;7.104;2023-12-22T05:06:22;7.60;99.90
15184;DHT22;7693;49.266;7.104;2023-12-22T05:08:48;7.60;99.90
15184;DHT22;7693;49.266;7.104;2023-12-22T05:11:14;7.70;99.90
15184;DHT22;7693;49.266;7.104;2023-12-22T05:13:39;7.70;99.90
15184;DHT22;7693;49.266;7.104;2023-12-22T05:16:07;7.70;99.90
15184;DHT22;7693;49.266;7.104;2023-12-22T05:18:33;7.70;99.90
15184;DHT22;7693;49.266;7.104;2023-12-22T05:20:58;7.70;99.90
15184;DHT22;7693;49.266;7.104;2023-12-22T05:23:24;7.70;99.90
15184;DHT22;7693;49.266;7.104;2023-12-22T05:25:49;7.70;99.90
15184;DHT22;7693;49.266;7.104;2023-12-22T05:28:15;7.80;99.90
15184;DHT22;7693;49.266;7.104;2023-12-22T05:30:41;7.80;99.90
15184;DHT22;7693;49.266;7.104;2023-12-22T05:33:06;7.80;99.90
15184;DHT22;7693;49.266;7.104;2023-12-22T05:35:32;7.80;99.90
15184;DHT22;7693;49.266;7.104;2023-12-22T05:37:58;7.80;99.90
15184;DHT22;7693;49.266;7.104;2023-12-22T05:40:23;7.80;99.90
15184;DHT22;7693;49.266;7.104;2023-12-22T05:42:49;7.80;99.90
15184;DHT22;7693;49.266;7.104;2023-12-22T05:45:15;7.80;99.90
15184;DHT22;7693;49.266;7.104;2023-12-22T05:47:40;7.80;99.90
15184;DHT22;7693;49.266;7.104;2023-12-22T05:50:07;7.70;99.90
15184;DHT22;7693;49.266;7.104;2023-12-22T05:52:32;7.70;99.90
15184;DHT22;7693;49.266;7.104;2023-12-22T05:54:58;7.70;99.90
15184;DHT22;7693;49.266;7.104;2023-12-22T05:57:27;7.70;99.90
15184;DHT22;7693;49.266;7.104;2023-12-22T05:59:52;7.70;99.90
15184;DHT22;7693;49.266;7.104;2023-12-22T06:02:18;7.60;99.90
15184;DHT22;7693;49.266;7.104;2023-12-22T06:04:44;7.60;99.90
15184;DHT22;7693;49.266;7.104;2023-12-22T06:07:10;7.60;99.90
15184;DHT22;7693;49.266;7.104;2023-12-22T06:09:36;7.60;99.90
15184;DHT22;7693;49.266;7.104;2023-12-22T06:12:02;7.60;99.90
15184;DHT22;7693;49.266;7.104;2023-12-22T06:14:27;7.50;99.90
15184;DHT22;7693;49.266;7.104;2023-12-22T06:16:53;7.50;99.90
15184;DHT22;7693;49.266;7.104;2023-12-22T06:19:22;7.50;99.90
15184;DHT22;7693;49.266;7.104;2023-12-22T06:21:49;7.50;99.90
15184;DHT22;7693;49.266;7.104;2023-12-22T06:24:15;7.50;99.90
15184;DHT22;7693;49.266;7.104;2023-12-22T06:26:41;7.50;99.90
15184;DHT22;7693;49.266;7.104;2023-12-22T06:29:07;7.50;99.90
15184;DHT22;7693;49.266;7.104;2023-12-22T06:31:33;7.50;99.90
15184;DHT22;7693;49.266;7.104;2023-12-22T06:33:58;7.50;99.90
15184;DHT22;7693;49.266;7.104;2023-12-22T06:36:28;7.50;99.90
15184;DHT22;7693;49.266;7.104;2023-12-22T06:38:55;7.50;99.90
15184;DHT22;7693;49.266;7.104;2023-12-22T06:41:21;7.50;99.90
15184;DHT22;7693;49.266;7.104;2023-12-22T06:43:47;7.50;99.90
15184;DHT22;7693;49.266;7.104;2023-12-22T06:46:16;7.60;99.90
15184;DHT22;7693;49.266;7.104;2023-12-22T06:48:42;7.60;99.90
15184;DHT22;7693;49.266;7.104;2023-12-22T06:51:17;7.60;99.90
15184;DHT22;7693;49.266;7.104;2023-12-22T06:53:43;7.60;99.90
15184;DHT22;7693;49.266;7.104;2023-12-22T06:56:24;7.60;99.90
15184;DHT22;7693;49.266;7.104;2023-12-22T06:58:52;7.60;99.90
15184;DHT22;7693;49.266;7.104;2023-12-22T07:01:36;7.60;99.90
15184;DHT22;7693;49.266;7.104;2023-12-22T07:04:02;7.60;99.90
15184;DHT22;7693;49.266;7.104;2023-12-22T07:06:30;7.60;99.90
15184;DHT22;7693;49.266;7.104;2023-12-22T07:11:34;7.60;99.90
15184;DHT22;7693;49.266;7.104;2023-12-22T07:14:00;7.70;99.90
15184;DHT22;7693;49.266;7.104;2023-12-22T07:16:25;7.70;99.90
15184;DHT22;7693;49.266;7.104;2023-12-22T07:18:51;7.70;99.90
15184;DHT22;7693;49.266;7.104;2023-12-22T07:21:17;7.70;99.90
15184;DHT22;7693;49.266;7.104;2023-12-22T07:23:46;7.70;99.90
15184;DHT22;7693;49.266;7.104;2023-12-22T07:26:12;7.70;99.90
15184;DHT22;7693;49.266;7.104;2023-12-22T07:28:38;7.70;99.90
15184;DHT22;7693;49.266;7.104;2023-12-22T07:31:03;7.70;99.90
15184;DHT22;7693;49.266;7.104;2023-12-22T07:33:30;7.70;99.90
15184;DHT22;7693;49.266;7.104;2023-12-22T07:38:23;7.70;99.90
15184;DHT22;7693;49.266;7.104;2023-12-22T07:40:49;7.70;99.90
15184;DHT22;7693;49.266;7.104;2023-12-22T07:43:15;7.70;99.90
15184;DHT22;7693;49.266;7.104;2023-12-22T07:45:41;7.70;99.90
15184;DHT22;7693;49.266;7.104;2023-12-22T07:48:07;7.70;99.90
15184;DHT22;7693;49.266;7.104;2023-12-22T07:50:33;7.70;99.90
15184;DHT22;7693;49.266;7.104;2023-12-22T07:52:58;7.70;99.90
15184;DHT22;7693;49.266;7.104;2023-12-22T07:55:24;7.80;99.90
15184;DHT22;7693;49.266;7.104;2023-12-22T07:57:50;7.80;99.90
15184;DHT22;7693;49.266;7.104;2023-12-22T08:00:17;7.80;99.90
15184;DHT22;7693;49.266;7.104;2023-12-22T08:02:42;7.80;99.90
15184;DHT22;7693;49.266;7.104;2023-12-22T08:05:08;7.80;99.90
15184;DHT22;7693;49.266;7.104;2023-12-22T08:07:34;7.90;99.90
15184;DHT22;7693;49.266;7.104;2023-12-22T08:10:00;7.90;99.90
15184;DHT22;7693;49.266;7.104;2023-12-22T08:12:27;7.90;99.90
15184;DHT22;7693;49.266;7.104;2023-12-22T08:14:53;7.90;99.90
15184;DHT22;7693;49.266;7.104;2023-12-22T08:17:19;7.90;99.90
15184;DHT22;7693;49.266;7.104;2023-12-22T08:19:45;8.00;99.90
15184;DHT22;7693;49.266;7.104;2023-12-22T08:22:11;8.00;99.90
15184;DHT22;7693;49.266;7.104;2023-12-22T08:24:38;8.00;99.90
15184;DHT22;7693;49.266;7.104;2023-12-22T08:27:05;8.00;99.90
15184;DHT22;7693;49.266;7.104;2023-12-22T08:29:32;8.00;99.90
15184;DHT22;7693;49.266;7.104;2023-12-22T08:31:57;8.00;99.90
15184;DHT22;7693;49.266;7.104;2023-12-22T08:34:23;8.00;99.90
15184;DHT22;7693;49.266;7.104;2023-12-22T08:36:48;8.10;99.90
15184;DHT22;7693;49.266;7.104;2023-12-22T08:39:14;8.10;99.90
15184;DHT22;7693;49.266;7.104;2023-12-22T08:41:40;8.10;99.90
15184;DHT22;7693;49.266;7.104;2023-12-22T08:44:06;8.10;99.90
15184;DHT22;7693;49.266;7.104;2023-12-22T08:46:32;8.10;99.90
15184;DHT22;7693;49.266;7.104;2023-12-22T08:48:58;8.10;99.90
15184;DHT22;7693;49.266;7.104;2023-12-22T08:51:26;8.20;99.90
15184;DHT22;7693;49.266;7.104;2023-12-22T08:53:53;8.20;99.90
15184;DHT22;7693;49.266;7.104;2023-12-22T08:56:21;8.20;99.90
15184;DHT22;7693;49.266;7.104;2023-12-22T08:58:47;8.20;99.90
15184;DHT22;7693;49.266;7.104;2023-12-22T09:01:16;8.20;99.90
15184;DHT22;7693;49.266;7.104;2023-12-22T09:03:41;8.30;99.90
15184;DHT22;7693;49.266;7.104;2023-12-22T09:06:17;8.30;99.90
15184;DHT22;7693;49.266;7.104;2023-12-22T09:08:44;8.30;99.90
15184;DHT22;7693;49.266;7.104;2023-12-22T09:11:15;8.30;99.90
15184;DHT22;7693;49.266;7.104;2023-12-22T09:13:41;8.30;99.90
15184;DHT22;7693;49.266;7.104;2023-12-22T09:16:07;8.30;99.90
15184;DHT22;7693;49.266;7.104;2023-12-22T09:18:33;8.30;99.90
15184;DHT22;7693;49.266;7.104;2023-12-22T09:20:59;8.30;99.90
15184;DHT22;7693;49.266;7.104;2023-12-22T09:23:25;8.30;99.90
15184;DHT22;7693;49.266;7.104;2023-12-22T09:25:50;8.40;99.90
15184;DHT22;7693;49.266;7.104;2023-12-22T09:28:16;8.40;99.90
15184;DHT22;7693;49.266;7.104;2023-12-22T09:30:42;8.40;99.90
15184;DHT22;7693;49.266;7.104;2023-12-22T09:33:09;8.40;99.90
15184;DHT22;7693;49.266;7.104;2023-12-22T09:35:35;8.40;99.90
15184;DHT22;7693;49.266;7.104;2023-12-22T09:38:01;8.50;99.90
15184;DHT22;7693;49.266;7.104;2023-12-22T09:40:27;8.50;99.90
15184;DHT22;7693;49.266;7.104;2023-12-22T09:42:57;8.50;99.90
15184;DHT22;7693;49.266;7.104;2023-12-22T09:45:24;8.50;99.90
15184;DHT22;7693;49.266;7.104;2023-12-22T09:47:51;8.50;99.90
15184;DHT22;7693;49.266;7.104;2023-12-22T09:50:18;8.60;99.90
15184;DHT22;7693;49.266;7.104;2023-12-22T09:52:45;8.60;99.90
15184;DHT22;7693;49.266;7.104;2023-12-22T09:55:12;8.60;99.90
15184;DHT22;7693;49.266;7.104;2023-12-22T09:57:38;8.60;99.90
15184;DHT22;7693;49.266;7.104;2023-12-22T10:00:09;8.70;99.90
15184;DHT22;7693;49.266;7.104;2023-12-22T10:02:36;8.70;99.90
15184;DHT22;7693;49.266;7.104;2023-12-22T10:05:02;8.70;99.90
15184;DHT22;7693;49.266;7.104;2023-12-22T10:07:30;8.70;99.90
15184;DHT22;7693;49.266;7.104;2023-12-22T10:09:57;8.70;99.90
15184;DHT22;7693;49.266;7.104;2023-12-22T10:12:24;8.70;99.90
15184;DHT22;7693;49.266;7.104;2023-12-22T10:14:51;8.70;99.90
15184;DHT22;7693;49.266;7.104;2023-12-22T10:17:18;8.70;99.90
15184;DHT22;7693;49.266;7.104;2023-12-22T10:19:44;8.70;99.90
15184;DHT22;7693;49.266;7.104;2023-12-22T10:22:10;8.70;99.90
15184;DHT22;7693;49.266;7.104;2023-12-22T10:24:45;8.70;99.90
15184;DHT22;7693;49.266;7.104;2023-12-22T10:27:16;8.70;99.90
15184;DHT22;7693;49.266;7.104;2023-12-22T10:29:48;8.70;99.90
15184;DHT22;7693;49.266;7.104;2023-12-22T10:32:14;8.70;99.90
15184;DHT22;7693;49.266;7.104;2023-12-22T10:34:39;8.70;99.90
15184;DHT22;7693;49.266;7.104;2023-12-22T10:37:05;8.70;99.90
15184;DHT22;7693;49.266;7.104;2023-12-22T10:39:31;8.70;99.90
15184;DHT22;7693;49.266;7.104;2023-12-22T10:42:00;8.70;99.90
15184;DHT22;7693;49.266;7.104;2023-12-22T10:44:27;8.70;99.90
15184;DHT22;7693;49.266;7.104;2023-12-22T10:46:53;8.70;99.90
15184;DHT22;7693;49.266;7.104;2023-12-22T10:49:20;8.70;99.90
15184;DHT22;7693;49.266;7.104;2023-12-22T10:51:46;8.70;99.90
15184;DHT22;7693;49.266;7.104;2023-12-22T10:54:12;8.70;99.90
15184;DHT22;7693;49.266;7.104;2023-12-22T10:56:38;8.70;99.90
15184;DHT22;7693;49.266;7.104;2023-12-22T10:59:04;8.70;99.90
15184;DHT22;7693;49.266;7.104;2023-12-22T11:01:30;8.70;99.90
15184;DHT22;7693;49.266;7.104;2023-12-22T13:14:53;9.40;99.90
15184;DHT22;7693;49.266;7.104;2023-12-22T13:17:19;9.40;99.90
15184;DHT22;7693;49.266;7.104;2023-12-22T13:19:45;9.40;99.90
15184;DHT22;7693;49.266;7.104;2023-12-22T13:22:11;9.40;99.90
15184;DHT22;7693;49.266;7.104;2023-12-22T13:24:37;9.40;99.90
15184;DHT22;7693;49.266;7.104;2023-12-22T13:27:04;9.50;99.90
15184;DHT22;7693;49.266;7.104;2023-12-22T13:29:44;9.50;99.90
15184;DHT22;7693;49.266;7.104;2023-12-22T13:32:21;9.50;99.90
15184;DHT22;7693;49.266;7.104;2023-12-22T13:34:53;9.50;99.90
15184;DHT22;7693;49.266;7.104;2023-12-22T13:37:19;9.60;99.90
15184;DHT22;7693;49.266;7.104;2023-12-22T14:48:11;9.50;99.90
15184;DHT22;7693;49.266;7.104;2023-12-22T14:50:37;9.40;99.90
15184;DHT22;7693;49.266;7.104;2023-12-22T14:53:02;9.50;99.90
15184;DHT22;7693;49.266;7.104;2023-12-22T14:55:28;9.50;99.90
15184;DHT22;7693;49.266;7.104;2023-12-22T14:57:54;9.50;99.90
15184;DHT22;7693;49.266;7.104;2023-12-22T15:00:19;9.50;99.90
15184;DHT22;7693;49.266;7.104;2023-12-22T15:02:45;9.50;99.90
15184;DHT22;7693;49.266;7.104;2023-12-22T15:05:11;9.50;99.90
15184;DHT22;7693;49.266;7.104;2023-12-22T15:07:36;9.50;99.90
15184;DHT22;7693;49.266;7.104;2023-12-22T15:10:02;9.50;99.90
15184;DHT22;7693;49.266;7.104;2023-12-22T15:12:31;9.60;99.90
15184;DHT22;7693;49.266;7.104;2023-12-22T15:15:01;9.60;99.90
15184;DHT22;7693;49.266;7.104;2023-12-22T15:17:28;9.60;99.90
15184;DHT22;7693;49.266;7.104;2023-12-22T15:19:54;9.60;99.90
15184;DHT22;7693;49.266;7.104;2023-12-22T15:22:20;9.60;99.90
15184;DHT22;7693;49.266;7.104;2023-12-22T15:24:47;9.60;99.90
15184;DHT22;7693;49.266;7.104;2023-12-22T15:27:13;9.60;99.90
15184;DHT22;7693;49.266;7.104;2023-12-22T15:29:39;9.60;99.90
15184;DHT22;7693;49.266;7.104;2023-12-22T15:32:05;9.60;99.90
15184;DHT22;7693;49.266;7.104;2023-12-22T15:34:31;9.50;99.90
15184;DHT22;7693;49.266;7.104;2023-12-22T15:36:56;9.60;99.90
15184;DHT22;7693;49.266;7.104;2023-12-22T15:39:22;9.50;99.90
15184;DHT22;7693;49.266;7.104;2023-12-22T15:41:48;9.50;99.90
15184;DHT22;7693;49.266;7.104;2023-12-22T15:44:14;9.60;99.90
15184;DHT22;7693;49.266;7.104;2023-12-22T15:46:40;9.50;99.90
15184;DHT22;7693;49.266;7.104;2023-12-22T15:49:06;9.60;99.90
15184;DHT22;7693;49.266;7.104;2023-12-22T15:51:32;9.50;99.90
15184;DHT22;7693;49.266;7.104;2023-12-22T15:53:57;9.50;99.90
15184;DHT22;7693;49.266;7.104;2023-12-22T15:56:23;9.50;99.90
15184;DHT22;7693;49.266;7.104;2023-12-22T15:58:49;9.50;99.90
15184;DHT22;7693;49.266;7.104;2023-12-22T16:01:14;9.50;99.90
15184;DHT22;7693;49.266;7.104;2023-12-22T16:03:44;9.50;99.90
15184;DHT22;7693;49.266;7.104;2023-12-22T16:06:16;9.50;99.90
15184;DHT22;7693;49.266;7.104;2023-12-22T16:08:42;9.50;99.90
15184;DHT22;7693;49.266;7.104;2023-12-22T16:11:08;9.50;99.90
15184;DHT22;7693;49.266;7.104;2023-12-22T16:13:34;9.50;99.90
15184;DHT22;7693;49.266;7.104;2023-12-22T16:16:01;9.60;99.90
15184;DHT22;7693;49.266;7.104;2023-12-22T16:18:27;9.50;99.90
15184;DHT22;7693;49.266;7.104;2023-12-22T16:20:53;9.50;99.90
15184;DHT22;7693;49.266;7.104;2023-12-22T16:23:19;9.50;99.90
15184;DHT22;7693;49.266;7.104;2023-12-22T16:25:49;9.50;99.90
15184;DHT22;7693;49.266;7.104;2023-12-22T16:28:20;9.50;99.90
15184;DHT22;7693;49.266;7.104;2023-12-22T16:30:47;9.50;99.90
15184;DHT22;7693;49.266;7.104;2023-12-22T16:33:14;9.50;99.90
15184;DHT22;7693;49.266;7.104;2023-12-22T16:35:40;9.40;99.90
15184;DHT22;7693;49.266;7.104;2023-12-22T16:38:06;9.50;99.90
15184;DHT22;7693;49.266;7.104;2023-12-22T16:40:31;9.40;99.90
15184;DHT22;7693;49.266;7.104;2023-12-22T16:42:57;9.40;99.90
15184;DHT22;7693;49.266;7.104;2023-12-22T16:45:23;9.40;99.90
15184;DHT22;7693;49.266;7.104;2023-12-22T16:47:50;9.40;99.90
15184;DHT22;7693;49.266;7.104;2023-12-22T16:50:15;9.30;99.90
15184;DHT22;7693;49.266;7.104;2023-12-22T16:52:41;9.30;99.90
15184;DHT22;7693;49.266;7.104;2023-12-22T16:55:07;9.30;99.90
15184;DHT22;7693;49.266;7.104;2023-12-22T16:57:33;9.30;99.90
15184;DHT22;7693;49.266;7.104;2023-12-22T17:00:02;9.30;99.90
15184;DHT22;7693;49.266;7.104;2023-12-22T17:02:27;9.30;99.90
15184;DHT22;7693;49.266;7.104;2023-12-22T17:04:53;9.20;99.90
15184;DHT22;7693;49.266;7.104;2023-12-22T17:07:18;9.20;99.90
15184;DHT22;7693;49.266;7.104;2023-12-22T17:09:47;9.20;99.90
15184;DHT22;7693;49.266;7.104;2023-12-22T17:12:13;9.30;99.90
15184;DHT22;7693;49.266;7.104;2023-12-22T17:14:38;9.30;99.90
15184;DHT22;7693;49.266;7.104;2023-12-22T17:17:04;9.20;99.90
15184;DHT22;7693;49.266;7.104;2023-12-22T17:19:30;9.20;99.90
15184;DHT22;7693;49.266;7.104;2023-12-22T17:21:56;9.20;99.90
15184;DHT22;7693;49.266;7.104;2023-12-22T17:24:22;9.20;99.90
15184;DHT22;7693;49.266;7.104;2023-12-22T17:26:47;9.20;99.90
15184;DHT22;7693;49.266;7.104;2023-12-22T17:29:13;9.20;99.90
15184;DHT22;7693;49.266;7.104;2023-12-22T17:31:38;9.20;99.90
15184;DHT22;7693;49.266;7.104;2023-12-22T17:34:04;9.20;99.90
15184;DHT22;7693;49.266;7.104;2023-12-22T17:36:31;9.20;99.90
15184;DHT22;7693;49.266;7.104;2023-12-22T17:38:58;9.20;99.90
15184;DHT22;7693;49.266;7.104;2023-12-22T17:41:24;9.20;99.90
15184;DHT22;7693;49.266;7.104;2023-12-22T17:43:49;9.20;99.90
15184;DHT22;7693;49.266;7.104;2023-12-22T17:46:15;9.20;99.90
15184;DHT22;7693;49.266;7.104;2023-12-22T17:48:41;9.20;99.90
15184;DHT22;7693;49.266;7.104;2023-12-22T17:51:07;9.20;99.90
15184;DHT22;7693;49.266;7.104;2023-12-22T17:53:33;9.20;99.90
15184;DHT22;7693;49.266;7.104;2023-12-22T17:55:58;9.20;99.90
15184;DHT22;7693;49.266;7.104;2023-12-22T17:58:24;9.20;99.90
15184;DHT22;7693;49.266;7.104;2023-12-22T18:00:50;9.20;99.90
15184;DHT22;7693;49.266;7.104;2023-12-22T18:03:16;9.20;99.90
15184;DHT22;7693;49.266;7.104;2023-12-22T18:05:41;9.20;99.90
15184;DHT22;7693;49.266;7.104;2023-12-22T18:08:09;9.20;99.90
15184;DHT22;7693;49.266;7.104;2023-12-22T18:10:35;9.20;99.90
15184;DHT22;7693;49.266;7.104;2023-12-22T18:13:00;9.20;99.90
15184;DHT22;7693;49.266;7.104;2023-12-22T18:15:26;9.20;99.90
15184;DHT22;7693;49.266;7.104;2023-12-22T18:17:52;9.20;99.90
15184;DHT22;7693;49.266;7.104;2023-12-22T18:20:17;9.20;99.90
15184;DHT22;7693;49.266;7.104;2023-12-22T18:22:43;9.10;99.90
15184;DHT22;7693;49.266;7.104;2023-12-22T18:25:09;9.20;99.90
15184;DHT22;7693;49.266;7.104;2023-12-22T18:27:37;9.20;99.90
15184;DHT22;7693;49.266;7.104;2023-12-22T18:30:04;9.20;99.90
15184;DHT22;7693;49.266;7.104;2023-12-22T18:32:30;9.20;99.90
15184;DHT22;7693;49.266;7.104;2023-12-22T18:34:58;9.20;99.90
15184;DHT22;7693;49.266;7.104;2023-12-22T18:37:23;9.20;99.90
15184;DHT22;7693;49.266;7.104;2023-12-22T18:39:49;9.20;99.90
15184;DHT22;7693;49.266;7.104;2023-12-22T18:42:15;9.20;99.90
15184;DHT22;7693;49.266;7.104;2023-12-22T18:44:40;9.20;99.90
15184;DHT22;7693;49.266;7.104;2023-12-22T18:47:06;9.20;99.90
15184;DHT22;7693;49.266;7.104;2023-12-22T18:49:31;9.20;99.90
15184;DHT22;7693;49.266;7.104;2023-12-22T18:51:57;9.20;99.90
15184;DHT22;7693;49.266;7.104;2023-12-22T18:54:23;9.20;99.90
15184;DHT22;7693;49.266;7.104;2023-12-22T18:56:48;9.20;99.90
15184;DHT22;7693;49.266;7.104;2023-12-22T18:59:15;9.20;99.90
15184;DHT22;7693;49.266;7.104;2023-12-22T19:01:41;9.20;99.90
15184;DHT22;7693;49.266;7.104;2023-12-22T19:04:07;9.20;99.90
15184;DHT22;7693;49.266;7.104;2023-12-22T19:06:32;9.10;99.90
15184;DHT22;7693;49.266;7.104;2023-12-22T19:08:58;9.20;99.90
15184;DHT22;7693;49.266;7.104;2023-12-22T19:11:23;9.10;99.90
15184;DHT22;7693;49.266;7.104;2023-12-22T19:13:49;9.10;99.90
15184;DHT22;7693;49.266;7.104;2023-12-22T19:16:15;9.10;99.90
15184;DHT22;7693;49.266;7.104;2023-12-22T19:18:40;9.10;99.90
15184;DHT22;7693;49.266;7.104;2023-12-22T19:21:06;9.10;99.90